createdAt,value
2022-12-16T00:01:16.728Z,21.40
2022-12-16T00:03:49.322Z,23.33
2022-12-16T00:06:20.169Z,22.90
2022-12-16T00:08:47.978Z,24.67
2022-12-16T00:11:15.967Z,22.70
2022-12-16T00:13:44.164Z,22.87
2022-12-16T00:16:15.432Z,22.17
2022-12-16T00:18:43.546Z,23.53
2022-12-16T00:21:12.272Z,22.00
2022-12-16T00:23:41.704Z,22.67
2022-12-16T00:26:10.249Z,24.30
2022-12-16T00:28:38.246Z,23.80
2022-12-16T00:31:06.475Z,23.07
2022-12-16T00:33:36.189Z,25.20
2022-12-16T00:36:04.363Z,23.33
2022-12-16T00:38:32.114Z,23.47
2022-12-16T00:41:00.099Z,24.17
2022-12-16T00:43:27.801Z,24.13
2022-12-16T00:45:55.563Z,24.43
2022-12-16T00:48:23.966Z,24.10
2022-12-16T00:50:55.395Z,24.23
2022-12-16T00:53:24.219Z,24.03
2022-12-16T00:55:52.358Z,24.33
2022-12-16T00:58:21.479Z,23.47
2022-12-16T01:00:49.232Z,23.63
2022-12-16T01:03:21.590Z,23.70
2022-12-16T01:05:50.453Z,25.70
2022-12-16T01:08:20.029Z,23.43
2022-12-16T01:10:51.962Z,23.50
2022-12-16T01:13:21.282Z,24.70
2022-12-16T01:15:49.177Z,24.70
2022-12-16T01:18:20.011Z,22.90
2022-12-16T01:20:47.786Z,23.20
2022-12-16T01:23:15.499Z,23.83
2022-12-16T01:25:44.882Z,23.40
2022-12-16T01:28:12.589Z,25.33
2022-12-16T01:30:40.335Z,23.50
2022-12-16T01:33:08.044Z,25.70
2022-12-16T01:35:55.207Z,24.13
2022-12-16T01:38:23.853Z,25.23
2022-12-16T01:40:52.941Z,24.07
2022-12-16T01:43:26.492Z,24.57
2022-12-16T01:45:58.105Z,24.43
2022-12-16T01:48:36.957Z,24.37
2022-12-16T01:51:09.146Z,23.83
2022-12-16T01:53:39.917Z,23.83
2022-12-16T01:56:09.709Z,24.40
2022-12-16T01:58:40.560Z,23.60
2022-12-16T02:01:09.148Z,24.47
2022-12-16T02:03:38.509Z,25.63
2022-12-16T02:06:08.081Z,23.90
2022-12-16T02:08:36.416Z,24.47
2022-12-16T02:11:37.653Z,24.37
2022-12-16T02:14:34.160Z,25.10
2022-12-16T02:17:10.584Z,24.43
2022-12-16T02:20:15.009Z,24.17
2022-12-16T02:23:00.265Z,23.90
2022-12-16T02:25:48.384Z,23.43
2022-12-16T02:28:33.588Z,25.37
2022-12-16T02:33:48.516Z,24.73
2022-12-16T02:36:26.051Z,23.83
2022-12-16T02:39:00.163Z,23.17
2022-12-16T02:41:39.004Z,23.53
2022-12-16T02:44:09.401Z,22.93
2022-12-16T02:46:41.881Z,23.50
2022-12-16T02:49:44.629Z,23.83
2022-12-16T02:52:13.748Z,24.47
2022-12-16T02:54:42.046Z,23.60
2022-12-16T02:57:23.903Z,24.80
2022-12-16T03:00:03.452Z,22.40
2022-12-16T03:02:39.355Z,24.47
2022-12-16T03:05:15.666Z,23.40
2022-12-16T03:07:46.073Z,25.60
2022-12-16T03:10:18.527Z,25.00
2022-12-16T03:12:47.199Z,24.33
2022-12-16T03:15:20.058Z,24.77
2022-12-16T03:17:49.919Z,24.27
2022-12-16T03:20:24.079Z,24.33
2022-12-16T03:22:53.311Z,24.40
2022-12-16T03:25:22.500Z,22.83
2022-12-16T03:27:58.519Z,22.40
2022-12-16T03:30:29.688Z,23.27
2022-12-16T03:33:03.069Z,23.97
2022-12-16T03:35:38.082Z,25.00
2022-12-16T03:38:09.140Z,24.13
2022-12-16T03:40:39.516Z,22.73
2022-12-16T03:43:09.050Z,23.77
2022-12-16T03:45:39.091Z,23.27
2022-12-16T03:48:08.917Z,23.17
2022-12-16T03:50:39.410Z,24.47
2022-12-16T03:53:08.494Z,23.20
2022-12-16T03:55:36.359Z,22.67
2022-12-16T03:58:04.292Z,21.87
2022-12-16T04:00:32.732Z,22.00
2022-12-16T04:03:00.877Z,23.07
2022-12-16T04:05:29.118Z,21.73
2022-12-16T04:08:01.832Z,21.93
2022-12-16T04:10:47.667Z,23.87
2022-12-16T04:13:33.428Z,23.67
2022-12-16T04:16:19.583Z,23.57
2022-12-16T04:19:06.108Z,24.37
2022-12-16T04:21:51.452Z,23.07
2022-12-16T04:24:30.045Z,21.17
2022-12-16T04:27:16.098Z,22.03
2022-12-16T04:29:58.010Z,22.83
2022-12-16T04:32:25.860Z,22.60
2022-12-16T04:34:52.908Z,23.93
2022-12-16T04:37:38.344Z,84.47
2022-12-16T04:40:26.335Z,34.33
2022-12-16T04:43:11.716Z,24.63
2022-12-16T04:45:57.614Z,22.93
2022-12-16T04:48:51.082Z,24.90
2022-12-16T04:51:36.362Z,22.37
2022-12-16T04:54:21.714Z,25.27
2022-12-16T04:57:08.369Z,23.97
2022-12-16T04:59:53.663Z,21.77
2022-12-16T05:02:39.049Z,23.07
2022-12-16T05:05:25.151Z,24.10
2022-12-16T05:08:10.478Z,24.13
2022-12-16T05:10:55.750Z,24.77
2022-12-16T05:13:42.415Z,21.90
2022-12-16T05:16:27.829Z,22.90
2022-12-16T05:19:14.011Z,23.10
2022-12-16T05:21:59.224Z,23.13
2022-12-16T05:24:47.330Z,23.40
2022-12-16T05:27:36.330Z,22.73
2022-12-16T05:30:23.358Z,22.73
2022-12-16T05:33:08.664Z,40.57
2022-12-16T05:36:05.454Z,27.53
2022-12-16T05:38:50.823Z,28.03
2022-12-16T05:41:36.160Z,25.50
2022-12-16T05:44:21.458Z,53.87
2022-12-16T05:47:08.156Z,37.00
2022-12-16T05:49:53.247Z,26.07
2022-12-16T05:52:39.120Z,24.27
2022-12-16T05:55:27.896Z,24.70
2022-12-16T05:58:17.319Z,24.67
2022-12-16T06:01:17.117Z,23.27
2022-12-16T06:04:17.755Z,23.17
2022-12-16T06:07:03.232Z,25.17
2022-12-16T06:09:53.139Z,26.13
2022-12-16T06:12:41.531Z,24.10
2022-12-16T06:15:27.699Z,24.70
2022-12-16T06:18:13.163Z,25.03
2022-12-16T06:21:08.277Z,24.50
2022-12-16T06:23:53.626Z,24.70
2022-12-16T06:26:39.036Z,22.80
2022-12-16T06:29:24.316Z,24.60
2022-12-16T06:32:09.630Z,24.47
2022-12-16T06:34:54.777Z,22.97
2022-12-16T06:37:41.422Z,23.90
2022-12-16T06:40:28.096Z,23.70
2022-12-16T06:43:13.452Z,23.80
2022-12-16T06:45:58.899Z,24.60
2022-12-16T06:48:43.980Z,23.07
2022-12-16T06:51:29.438Z,22.47
2022-12-16T06:54:16.040Z,22.27
2022-12-16T06:57:01.229Z,22.67
2022-12-16T06:59:46.453Z,24.50
2022-12-16T07:02:31.858Z,22.77
2022-12-16T07:05:17.236Z,23.53
2022-12-16T07:08:06.475Z,23.40
2022-12-16T07:10:53.014Z,23.73
2022-12-16T07:13:40.742Z,23.47
2022-12-16T07:16:26.038Z,22.67
2022-12-16T07:19:11.136Z,23.00
2022-12-16T07:21:56.624Z,22.93
2022-12-16T07:24:41.866Z,26.73
2022-12-16T07:27:28.533Z,23.03
2022-12-16T07:30:13.831Z,23.77
2022-12-16T07:32:59.165Z,23.50
2022-12-16T07:35:44.649Z,25.20
2022-12-16T07:38:29.940Z,23.17
2022-12-16T07:41:15.263Z,25.00
2022-12-16T07:44:01.787Z,24.90
2022-12-16T07:46:47.298Z,23.17
2022-12-16T07:49:32.716Z,24.70
2022-12-16T07:52:17.964Z,24.90
2022-12-16T07:55:03.194Z,24.20
2022-12-16T07:57:48.380Z,25.03
2022-12-16T08:00:35.394Z,26.20
2022-12-16T08:03:20.779Z,25.63
2022-12-16T08:06:07.347Z,24.50
2022-12-16T08:08:52.632Z,23.33
2022-12-16T08:11:37.857Z,25.70
2022-12-16T08:14:25.426Z,24.13
2022-12-16T08:17:12.308Z,23.57
2022-12-16T08:19:57.463Z,23.63
2022-12-16T08:22:42.863Z,23.67
2022-12-16T08:25:28.285Z,23.13
2022-12-16T08:28:13.688Z,23.07
2022-12-16T08:30:58.920Z,24.73
2022-12-16T08:33:45.779Z,24.50
2022-12-16T08:36:31.136Z,24.07
2022-12-16T08:39:16.610Z,22.90
2022-12-16T08:42:01.857Z,24.53
2022-12-16T08:44:47.259Z,23.63
2022-12-16T08:47:32.514Z,24.87
2022-12-16T08:50:19.287Z,23.90
2022-12-16T08:53:04.602Z,25.33
2022-12-16T08:55:50.053Z,24.53
2022-12-16T08:58:35.302Z,25.23
2022-12-16T09:01:20.827Z,25.87
2022-12-16T09:04:06.269Z,25.53
2022-12-16T09:06:52.697Z,26.37
2022-12-16T09:09:37.889Z,25.57
2022-12-16T09:12:23.271Z,25.93
2022-12-16T09:15:08.748Z,24.80
2022-12-16T09:17:54.010Z,24.30
2022-12-16T09:20:39.261Z,23.67
2022-12-16T09:23:25.915Z,25.07
2022-12-16T09:26:11.381Z,23.23
2022-12-16T09:28:56.457Z,25.07
2022-12-16T09:31:41.822Z,26.33
2022-12-16T09:34:26.943Z,24.70
2022-12-16T09:37:12.327Z,25.60
2022-12-16T09:39:58.885Z,24.60
2022-12-16T09:42:55.376Z,24.93
2022-12-16T09:45:50.778Z,26.17
2022-12-16T09:48:43.033Z,24.50
2022-12-16T09:51:29.826Z,27.30
2022-12-16T09:54:16.129Z,24.13
2022-12-16T09:57:04.159Z,24.13
2022-12-16T09:59:53.404Z,25.10
2022-12-16T10:02:39.554Z,24.60
2022-12-16T10:05:30.181Z,26.37
2022-12-16T10:08:23.076Z,23.60
2022-12-16T10:11:17.628Z,23.20
2022-12-16T10:14:15.990Z,22.87
2022-12-16T10:17:10.951Z,23.13
2022-12-16T10:20:12.282Z,21.50
2022-12-16T10:23:04.155Z,24.07
2022-12-16T10:25:57.924Z,20.97
2022-12-16T10:28:56.884Z,22.40
2022-12-16T10:31:40.380Z,23.97
2022-12-16T10:34:32.287Z,25.37
2022-12-16T10:37:21.123Z,24.17
2022-12-16T10:40:09.284Z,20.97
2022-12-16T10:42:59.168Z,21.77
2022-12-16T10:45:47.461Z,20.90
2022-12-16T10:48:41.053Z,21.73
2022-12-16T10:51:32.988Z,19.97
2022-12-16T10:54:29.479Z,22.13
2022-12-16T10:57:23.851Z,20.93
2022-12-16T11:00:09.166Z,23.03
2022-12-16T11:02:56.874Z,20.70
2022-12-16T11:05:50.927Z,20.90
2022-12-16T11:08:43.799Z,22.30
2022-12-16T11:11:40.333Z,26.67
2022-12-16T11:14:38.794Z,22.03
2022-12-16T11:17:33.195Z,20.17
2022-12-16T11:20:33.404Z,20.97
2022-12-16T11:23:35.123Z,20.73
2022-12-16T11:26:35.864Z,19.37
2022-12-16T11:29:29.023Z,20.40
2022-12-16T11:32:21.826Z,18.93
2022-12-16T11:35:13.310Z,18.47
2022-12-16T11:38:00.184Z,18.57
2022-12-16T11:40:49.000Z,19.10
2022-12-16T11:43:36.592Z,20.10
2022-12-16T11:46:28.645Z,19.13
2022-12-16T11:49:23.374Z,18.17
2022-12-16T11:52:35.813Z,20.23
2022-12-16T11:56:03.207Z,20.13
2022-12-16T11:58:47.968Z,20.07
2022-12-16T12:01:51.884Z,18.53
2022-12-16T12:04:41.248Z,18.73
2022-12-16T12:07:44.555Z,18.73
2022-12-16T12:10:48.694Z,19.43
2022-12-16T12:13:49.710Z,19.23
2022-12-16T12:16:43.773Z,18.73
2022-12-16T12:19:34.336Z,20.00
2022-12-16T12:22:26.197Z,18.00
2022-12-16T12:25:20.140Z,19.10
2022-12-16T12:28:13.695Z,20.30
2022-12-16T12:31:06.045Z,19.73
2022-12-16T12:34:15.746Z,19.03
2022-12-16T12:37:10.141Z,18.43
2022-12-16T12:40:01.419Z,19.17
2022-12-16T12:42:55.082Z,18.90
2022-12-16T12:46:01.169Z,20.00
2022-12-16T12:48:57.440Z,19.43
2022-12-16T12:51:48.995Z,19.63
2022-12-16T12:54:41.701Z,19.70
2022-12-16T12:57:35.250Z,19.53
2022-12-16T13:00:23.562Z,20.10
2022-12-16T13:03:15.962Z,20.30
2022-12-16T13:06:02.988Z,18.53
2022-12-16T13:09:04.167Z,18.70
2022-12-16T13:11:49.478Z,19.97
2022-12-16T13:15:13.035Z,20.30
2022-12-16T13:18:31.774Z,18.77
2022-12-16T13:21:18.863Z,20.90
2022-12-16T13:24:04.625Z,19.33
2022-12-16T13:26:52.015Z,19.87
2022-12-16T13:29:39.903Z,19.77
2022-12-16T13:32:36.377Z,21.63
2022-12-16T13:35:24.335Z,21.43
2022-12-16T13:38:12.265Z,20.57
2022-12-16T13:41:14.234Z,20.90
2022-12-16T13:44:10.320Z,20.67
2022-12-16T13:47:01.579Z,20.63
2022-12-16T13:50:00.047Z,21.50
2022-12-16T13:52:56.116Z,21.20
2022-12-16T13:55:47.973Z,21.67
2022-12-16T13:58:40.468Z,21.77
2022-12-16T14:01:31.414Z,21.63
2022-12-16T14:04:19.649Z,21.53
2022-12-16T14:07:04.942Z,22.03
2022-12-16T14:09:55.215Z,22.20
2022-12-16T14:13:11.419Z,22.07
2022-12-16T14:16:09.345Z,22.27
2022-12-16T14:19:05.848Z,22.50
2022-12-16T14:21:58.151Z,22.73
2022-12-16T14:24:46.433Z,20.37
2022-12-16T14:27:34.706Z,22.87
2022-12-16T14:30:47.872Z,21.90
2022-12-16T14:33:41.558Z,20.40
2022-12-16T14:36:41.147Z,19.90
2022-12-16T14:39:30.583Z,19.60
2022-12-16T14:42:16.061Z,20.67
2022-12-16T14:45:04.287Z,21.67
2022-12-16T14:47:50.786Z,22.70
2022-12-16T14:50:43.819Z,21.07
2022-12-16T14:53:33.805Z,23.57
2022-12-16T14:56:36.647Z,22.03
2022-12-16T14:59:31.471Z,21.77
2022-12-16T15:02:22.208Z,22.93
2022-12-16T15:05:08.165Z,22.90
2022-12-16T15:07:56.522Z,25.93
2022-12-16T15:10:45.694Z,22.60
2022-12-16T15:13:36.422Z,22.57
2022-12-16T15:16:23.564Z,23.77
2022-12-16T15:19:15.882Z,22.97
2022-12-16T15:22:03.222Z,23.23
2022-12-16T15:24:53.552Z,26.87
2022-12-16T15:27:43.496Z,25.47
2022-12-16T15:30:52.244Z,25.87
2022-12-16T15:33:39.852Z,26.00
2022-12-16T15:36:40.267Z,27.00
2022-12-16T15:39:38.006Z,28.10
2022-12-16T15:42:26.096Z,28.70
2022-12-16T15:45:11.573Z,27.93
2022-12-16T15:47:57.392Z,26.53
2022-12-16T15:50:45.259Z,30.47
2022-12-16T15:53:46.833Z,28.67
2022-12-16T15:56:37.710Z,27.87
2022-12-16T15:59:37.562Z,26.23
2022-12-16T16:02:25.884Z,26.87
2022-12-16T16:05:12.595Z,28.27
2022-12-16T16:08:03.468Z,28.67
2022-12-16T16:10:49.026Z,29.83
2022-12-16T16:13:35.908Z,28.97
2022-12-16T16:16:21.840Z,29.70
2022-12-16T16:19:06.917Z,29.27
2022-12-16T16:21:52.288Z,31.10
2022-12-16T16:24:37.785Z,29.17
2022-12-16T16:27:29.741Z,30.57
2022-12-16T16:30:16.834Z,28.83
2022-12-16T16:33:02.215Z,30.43
2022-12-16T16:35:54.126Z,30.37
2022-12-16T16:38:39.428Z,31.77
2022-12-16T16:41:32.155Z,30.43
2022-12-16T16:44:19.864Z,32.50
2022-12-16T16:47:07.131Z,30.07
2022-12-16T16:49:56.138Z,30.50
2022-12-16T16:52:55.016Z,31.20
2022-12-16T16:55:42.225Z,32.77
2022-12-16T16:58:33.155Z,35.60
2022-12-16T17:01:18.617Z,36.93
2022-12-16T17:04:05.598Z,35.87
2022-12-16T17:06:51.407Z,38.37
2022-12-16T17:09:36.733Z,36.67
2022-12-16T17:12:39.975Z,36.27
2022-12-16T17:15:33.482Z,34.40
2022-12-16T17:18:15.439Z,35.43
2022-12-16T17:21:01.812Z,35.10
2022-12-16T17:23:47.271Z,34.10
2022-12-16T17:26:32.449Z,35.30
2022-12-16T17:29:17.792Z,34.00
2022-12-16T17:32:03.108Z,34.00
2022-12-16T17:34:48.215Z,32.60
2022-12-16T17:37:34.857Z,32.07
2022-12-16T17:40:20.029Z,34.10
2022-12-16T17:43:05.256Z,32.70
2022-12-16T17:45:50.651Z,31.90
2022-12-16T17:48:35.973Z,33.87
2022-12-16T17:51:22.345Z,36.90
2022-12-16T17:54:17.664Z,33.60
2022-12-16T17:57:07.287Z,36.37
2022-12-16T17:59:54.722Z,35.63
2022-12-16T18:02:40.474Z,35.60
2022-12-16T18:05:29.964Z,41.77
2022-12-16T18:08:20.622Z,43.27
2022-12-16T18:11:10.584Z,38.30
2022-12-16T18:13:55.906Z,36.43
2022-12-16T18:16:41.345Z,41.07
2022-12-16T18:19:27.151Z,37.97
2022-12-16T18:22:12.417Z,37.03
2022-12-16T18:24:57.742Z,38.80
2022-12-16T18:27:44.977Z,37.47
2022-12-16T18:30:30.768Z,35.93
2022-12-16T18:33:16.172Z,34.50
2022-12-16T18:36:01.426Z,33.63
2022-12-16T18:38:50.040Z,33.97
2022-12-16T18:41:36.999Z,35.97
2022-12-16T18:44:25.129Z,36.80
2022-12-16T18:47:10.476Z,34.47
2022-12-16T18:49:55.822Z,36.00
2022-12-16T18:52:41.135Z,33.87
2022-12-16T18:55:27.066Z,33.73
2022-12-16T18:58:42.231Z,32.93
2022-12-16T19:01:23.619Z,32.67
2022-12-16T19:04:09.264Z,33.30
2022-12-16T19:06:54.649Z,32.77
2022-12-16T19:09:39.986Z,33.00
2022-12-16T19:12:25.500Z,33.50
2022-12-16T19:15:11.068Z,33.57
2022-12-16T19:17:57.694Z,33.83
2022-12-16T19:20:43.053Z,32.73
2022-12-16T19:23:27.548Z,33.87
2022-12-16T19:26:15.363Z,33.80
2022-12-16T19:29:00.776Z,34.87
2022-12-16T19:31:46.236Z,32.13
2022-12-16T19:34:33.276Z,33.50
2022-12-16T19:37:19.692Z,34.73
2022-12-16T19:40:04.887Z,33.23
2022-12-16T19:42:50.434Z,31.40
2022-12-16T19:45:36.639Z,31.87
2022-12-16T19:48:25.000Z,31.57
2022-12-16T19:51:16.535Z,31.03
2022-12-16T19:54:02.754Z,31.27
2022-12-16T19:56:48.496Z,27.07
2022-12-16T19:59:33.761Z,30.47
2022-12-16T20:02:19.228Z,29.53
2022-12-16T20:05:05.000Z,27.87
2022-12-16T20:07:51.755Z,29.60
2022-12-16T20:10:37.210Z,28.97
2022-12-16T20:16:31.719Z,29.70
2022-12-16T20:19:18.037Z,32.43
2022-12-16T20:22:06.766Z,37.92
2022-12-16T20:27:59.860Z,32.83
2022-12-16T20:30:45.299Z,33.33
2022-12-16T20:33:31.757Z,32.57
2022-12-16T20:36:17.626Z,30.03
2022-12-16T20:38:59.619Z,29.67
2022-12-16T20:41:46.144Z,28.87
2022-12-16T20:44:31.513Z,28.80
2022-12-16T20:47:16.807Z,30.23
2022-12-16T20:50:02.194Z,29.50
2022-12-16T20:52:47.607Z,28.03
2022-12-16T20:55:32.846Z,28.53
2022-12-16T20:58:19.559Z,27.77
2022-12-16T21:01:09.596Z,30.20
2022-12-16T21:03:54.918Z,29.97
2022-12-16T21:06:41.709Z,31.20
2022-12-16T21:09:26.979Z,31.07
2022-12-16T21:12:12.314Z,31.33
2022-12-16T21:14:58.120Z,29.50
2022-12-16T21:17:43.548Z,29.63
2022-12-16T21:20:29.136Z,29.90
2022-12-16T21:23:18.162Z,29.63
2022-12-16T21:26:17.991Z,29.57
2022-12-16T21:29:03.163Z,28.67
2022-12-16T21:31:49.459Z,32.40
2022-12-16T21:34:34.762Z,33.23
2022-12-16T21:37:20.024Z,34.53
2022-12-16T21:40:05.363Z,35.03
2022-12-16T21:42:50.891Z,36.73
2022-12-16T21:45:37.032Z,36.47
2022-12-16T21:48:24.077Z,35.87
2022-12-16T21:51:10.217Z,35.73
2022-12-16T21:53:55.617Z,35.40
2022-12-16T21:56:41.824Z,35.80
2022-12-16T21:59:27.201Z,32.07
2022-12-16T22:02:12.588Z,32.50
2022-12-16T22:04:59.054Z,31.27
2022-12-16T22:07:45.150Z,30.50
2022-12-16T22:10:30.459Z,29.40
2022-12-16T22:13:17.947Z,28.80
2022-12-16T22:16:12.152Z,26.83
2022-12-16T22:18:57.359Z,24.70
2022-12-16T22:21:43.854Z,23.50
2022-12-16T22:24:29.524Z,25.80
2022-12-16T22:27:15.223Z,24.90
2022-12-16T22:30:00.518Z,23.13
2022-12-16T22:32:45.828Z,22.67
2022-12-16T22:35:31.356Z,21.77
2022-12-16T22:38:18.031Z,21.70
2022-12-16T22:41:12.083Z,20.60
2022-12-16T22:43:57.457Z,21.63
2022-12-16T22:46:42.905Z,21.20
2022-12-16T22:49:28.057Z,20.92
2022-12-16T22:52:13.390Z,20.52
2022-12-16T22:55:00.036Z,21.20
2022-12-16T22:57:45.817Z,20.35
2022-12-16T23:00:32.609Z,20.40
2022-12-16T23:03:17.851Z,19.60
2022-12-16T23:06:03.131Z,20.20
2022-12-16T23:08:48.471Z,20.42
2022-12-16T23:11:40.180Z,21.27
2022-12-16T23:14:25.454Z,21.80
2022-12-16T23:17:10.681Z,22.63
2022-12-16T23:19:56.666Z,24.00
2022-12-16T23:22:41.668Z,21.87
2022-12-16T23:25:29.389Z,22.77
2022-12-16T23:28:16.054Z,23.07
2022-12-16T23:31:01.364Z,21.08
2022-12-16T23:33:46.648Z,23.73
2022-12-16T23:36:31.866Z,21.67
2022-12-16T23:39:17.154Z,22.00
2022-12-16T23:42:02.394Z,23.17
2022-12-16T23:44:56.236Z,22.60
2022-12-16T23:47:53.209Z,22.67
2022-12-16T23:50:41.607Z,22.73
2022-12-16T23:53:28.854Z,20.65
2022-12-16T23:56:14.643Z,21.87
2022-12-16T23:58:59.915Z,22.13
